Time;durP1;ratioP1;P1;durP2;ratioP2;P2;SDS_P1;SDS_P2;PMS_P1;PMS_P2;Temp;Humidity;BMP_temperature;BMP_pressure;BME280_temperature;BME280_humidity;BME280_pressure;Samples;Min_cycle;Max_cycle;Signal;HPM_P1;HPM_P2
2023/08/26 00:02:19;;;;;;;15.45;9.18;;;;;;;;;;4974144;28;20117;-62
2023/08/26 00:04:45;;;;;;;11.38;8.65;;;;;;;;;;4974079;28;20511;-62
2023/08/26 00:07:10;;;;;;;11.50;9.48;;;;;;;;;;4974059;28;20034;-62
2023/08/26 00:09:36;;;;;;;11.75;8.75;;;;;;;;;;4974108;28;20031;-62
2023/08/26 00:12:01;;;;;;;11.48;9.00;;;;;;;;;;4973958;28;20396;-62
2023/08/26 00:14:27;;;;;;;11.80;9.60;;;;;;;;;;4974125;28;20114;-63
2023/08/26 00:16:52;;;;;;;11.50;8.65;;;;;;;;;;4973812;28;20034;-62
2023/08/26 00:19:20;;;;;;;11.35;9.02;;;;;;;;;;4974043;28;20118;-63
2023/08/26 00:21:46;;;;;;;15.98;9.40;;;;;;;;;;4973880;28;20116;-62
2023/08/26 00:24:12;;;;;;;10.95;9.38;;;;;;;;;;4973898;28;20031;-64
2023/08/26 00:26:38;;;;;;;14.40;9.63;;;;;;;;;;4973739;28;20030;-63
2023/08/26 00:29:04;;;;;;;11.80;9.15;;;;;;;;;;4972554;28;20045;-63
2023/08/26 00:31:29;;;;;;;17.20;10.15;;;;;;;;;;4973788;28;20035;-63
2023/08/26 00:33:54;;;;;;;16.25;10.05;;;;;;;;;;4973369;28;20026;-64
2023/08/26 00:36:20;;;;;;;16.75;11.18;;;;;;;;;;4973490;28;20477;-61
2023/08/26 00:38:45;;;;;;;12.65;9.68;;;;;;;;;;4973593;28;20457;-62
2023/08/26 00:41:11;;;;;;;14.10;10.38;;;;;;;;;;4973620;28;20036;-61
2023/08/26 00:43:37;;;;;;;13.73;9.90;;;;;;;;;;4973699;28;20023;-61
2023/08/26 00:46:03;;;;;;;13.30;9.85;;;;;;;;;;4983381;28;20063;-61
2023/08/26 00:48:29;;;;;;;11.27;9.40;;;;;;;;;;4957845;28;20031;-61
2023/08/26 00:50:55;;;;;;;10.68;9.57;;;;;;;;;;4973679;28;20122;-61
2023/08/26 00:53:21;;;;;;;12.25;9.73;;;;;;;;;;4973544;28;20058;-61
2023/08/26 00:55:47;;;;;;;14.57;9.85;;;;;;;;;;4973433;28;20395;-61
2023/08/26 00:58:14;;;;;;;11.20;9.77;;;;;;;;;;4973662;28;20031;-61
2023/08/26 01:00:40;;;;;;;14.55;9.95;;;;;;;;;;4975222;28;20086;-61
2023/08/26 01:03:06;;;;;;;14.63;10.18;;;;;;;;;;4973653;28;20126;-61
2023/08/26 01:05:32;;;;;;;10.63;9.45;;;;;;;;;;4973412;28;20121;-61
2023/08/26 01:07:58;;;;;;;13.20;9.85;;;;;;;;;;4973486;28;20189;-61
2023/08/26 01:10:36;;;;;;;12.68;10.05;;;;;;;;;;4973520;28;20038;-62
2023/08/26 01:13:05;;;;;;;12.85;10.13;;;;;;;;;;4973279;28;20457;-62
2023/08/26 01:15:35;;;;;;;13.00;10.23;;;;;;;;;;4973226;28;20027;-62
2023/08/26 01:18:05;;;;;;;13.32;9.43;;;;;;;;;;4973288;28;20043;-62
2023/08/26 01:20:32;;;;;;;12.43;9.52;;;;;;;;;;4973208;28;20027;-61
2023/08/26 01:22:59;;;;;;;14.02;10.00;;;;;;;;;;4973346;28;20039;-62
2023/08/26 01:25:25;;;;;;;15.57;9.38;;;;;;;;;;4973397;28;20054;-62
2023/08/26 01:27:52;;;;;;;13.32;9.52;;;;;;;;;;4973143;28;20031;-62
2023/08/26 01:30:18;;;;;;;13.00;9.57;;;;;;;;;;4973001;28;20038;-61
2023/08/26 01:33:08;;;;;;;11.52;8.80;;;;;;;;;;4973088;28;20040;-62
2023/08/26 01:35:37;;;;;;;;;;;;;;;;;;4968921;28;20096;-62
2023/08/26 01:38:04;;;;;;;10.70;8.50;;;;;;;;;;4973163;28;19941;-61
2023/08/26 01:40:31;;;;;;;10.65;7.88;;;;;;;;;;4971760;28;20038;-61
2023/08/26 01:42:58;;;;;;;10.10;7.95;;;;;;;;;;4972922;28;20499;-61
2023/08/26 01:45:23;;;;;;;9.55;6.93;;;;;;;;;;4973100;28;20026;-62
2023/08/26 01:47:49;;;;;;;10.32;6.43;;;;;;;;;;4976924;28;20107;-62
2023/08/26 01:50:14;;;;;;;9.85;5.97;;;;;;;;;;4977016;28;20178;-61
2023/08/26 01:52:41;;;;;;;9.07;5.65;;;;;;;;;;4976846;28;20050;-62
2023/08/26 01:55:07;;;;;;;10.90;5.63;;;;;;;;;;4976664;28;20035;-61
2023/08/26 01:57:32;;;;;;;7.63;5.22;;;;;;;;;;4982618;28;20494;-62
2023/08/26 01:59:58;;;;;;;9.65;5.57;;;;;;;;;;4978858;28;20042;-61
2023/08/26 02:02:23;;;;;;;8.00;5.57;;;;;;;;;;4976648;28;20420;-62
2023/08/26 02:04:49;;;;;;;7.95;5.28;;;;;;;;;;4976240;28;20026;-62
2023/08/26 02:07:14;;;;;;;7.60;4.90;;;;;;;;;;4975296;28;20033;-62
2023/08/26 02:09:40;;;;;;;7.50;5.20;;;;;;;;;;4976484;28;20045;-62
2023/08/26 02:12:06;;;;;;;6.53;4.72;;;;;;;;;;4976182;28;20466;-62
2023/08/26 02:14:31;;;;;;;8.35;5.32;;;;;;;;;;4976356;28;20027;-62
2023/08/26 02:16:57;;;;;;;6.97;5.05;;;;;;;;;;4976255;28;20037;-62
2023/08/26 02:19:22;;;;;;;11.77;5.38;;;;;;;;;;4976309;28;20045;-62
2023/08/26 02:21:47;;;;;;;7.63;4.90;;;;;;;;;;4976116;28;20026;-62
2023/08/26 02:24:13;;;;;;;6.32;5.00;;;;;;;;;;4976185;28;20093;-63
2023/08/26 02:26:38;;;;;;;6.82;4.72;;;;;;;;;;4975840;28;20475;-62
2023/08/26 02:29:04;;;;;;;8.02;5.10;;;;;;;;;;4976128;28;20341;-61
2023/08/26 02:31:30;;;;;;;6.35;4.70;;;;;;;;;;4975619;28;20412;-61
2023/08/26 02:33:56;;;;;;;9.77;4.65;;;;;;;;;;4976011;28;20111;-61
2023/08/26 02:36:21;;;;;;;5.60;4.70;;;;;;;;;;4976000;28;20186;-61
2023/08/26 02:38:47;;;;;;;7.30;4.70;;;;;;;;;;4975800;28;20031;-62
2023/08/26 02:41:12;;;;;;;6.78;4.85;;;;;;;;;;4975726;28;20027;-62
2023/08/26 02:43:37;;;;;;;11.32;4.63;;;;;;;;;;4975879;28;20031;-63
2023/08/26 02:46:03;;;;;;;8.57;4.55;;;;;;;;;;4975792;28;20027;-62
2023/08/26 02:48:29;;;;;;;9.75;4.70;;;;;;;;;;4975614;28;20049;-62
2023/08/26 02:50:59;;;;;;;6.78;4.43;;;;;;;;;;4975764;28;20143;-62
2023/08/26 02:53:25;;;;;;;;;;;;;;;;;;4976240;28;20035;-62
2023/08/26 02:55:51;;;;;;;7.57;4.60;;;;;;;;;;4975296;28;19925;-61
2023/08/26 02:58:17;;;;;;;7.20;4.90;;;;;;;;;;4974678;28;20035;-61
2023/08/26 03:00:42;;;;;;;7.63;4.78;;;;;;;;;;4977631;28;20089;-62
2023/08/26 03:03:07;;;;;;;5.65;4.72;;;;;;;;;;4975558;28;20038;-61
2023/08/26 03:05:34;;;;;;;7.85;4.88;;;;;;;;;;4989357;28;20131;-62
2023/08/26 03:07:59;;;;;;;8.32;5.38;;;;;;;;;;4975411;28;20031;-62
2023/08/26 03:10:25;;;;;;;10.50;5.03;;;;;;;;;;4975223;28;20126;-62
2023/08/26 03:12:50;;;;;;;8.15;5.65;;;;;;;;;;4974956;28;20070;-62
2023/08/26 03:15:16;;;;;;;6.80;6.10;;;;;;;;;;4975292;28;20031;-61
2023/08/26 03:17:41;;;;;;;9.95;6.00;;;;;;;;;;4975307;28;20173;-61
2023/08/26 03:20:07;;;;;;;8.60;6.30;;;;;;;;;;4975214;28;20488;-61
2023/08/26 03:22:33;;;;;;;16.52;6.70;;;;;;;;;;4975005;28;20125;-62
2023/08/26 03:24:58;;;;;;;9.70;6.10;;;;;;;;;;4974901;28;20045;-61
2023/08/26 03:27:24;;;;;;;8.82;6.50;;;;;;;;;;4974968;28;20027;-62
2023/08/26 03:29:50;;;;;;;10.20;6.15;;;;;;;;;;4974886;28;20057;-61
2023/08/26 03:32:15;;;;;;;9.93;6.45;;;;;;;;;;4975071;28;20114;-61
2023/08/26 03:34:41;;;;;;;9.98;6.78;;;;;;;;;;4974860;28;20113;-62
2023/08/26 03:37:06;;;;;;;10.00;6.05;;;;;;;;;;4974335;28;20062;-61
2023/08/26 03:39:32;;;;;;;10.18;5.72;;;;;;;;;;4974652;28;25362;-61
2023/08/26 03:41:57;;;;;;;8.55;5.93;;;;;;;;;;4974822;28;20035;-62
2023/08/26 03:44:23;;;;;;;11.70;5.88;;;;;;;;;;4974841;28;20031;-62
2023/08/26 03:46:48;;;;;;;7.03;6.25;;;;;;;;;;4974474;28;20101;-61
2023/08/26 03:49:14;;;;;;;11.18;5.60;;;;;;;;;;4974889;28;20039;-61
2023/08/26 03:51:39;;;;;;;10.85;5.47;;;;;;;;;;4974428;28;20035;-62
2023/08/26 03:54:05;;;;;;;7.32;5.68;;;;;;;;;;4974309;28;20023;-61
2023/08/26 03:56:30;;;;;;;10.02;5.72;;;;;;;;;;4974445;28;20078;-62
2023/08/26 03:58:57;;;;;;;7.00;5.53;;;;;;;;;;4976644;28;20031;-61
2023/08/26 04:01:23;;;;;;;8.60;5.50;;;;;;;;;;4974379;28;20058;-61
2023/08/26 04:03:52;;;;;;;8.60;5.28;;;;;;;;;;4974345;28;20050;-61
2023/08/26 04:06:17;;;;;;;7.97;5.43;;;;;;;;;;4974382;28;20023;-62
2023/08/26 04:08:44;;;;;;;8.45;6.30;;;;;;;;;;4973477;28;20096;-62
2023/08/26 04:11:10;;;;;;;8.65;6.53;;;;;;;;;;4973540;28;20069;-62
2023/08/26 04:13:35;;;;;;;7.18;5.78;;;;;;;;;;4974013;28;20051;-62
2023/08/26 04:16:03;;;;;;;9.88;6.38;;;;;;;;;;4974045;28;20039;-62
2023/08/26 04:18:29;;;;;;;8.27;6.53;;;;;;;;;;4973836;28;20415;-62
2023/08/26 04:20:55;;;;;;;6.82;6.00;;;;;;;;;;4974017;28;20102;-61
2023/08/26 04:23:20;;;;;;;9.90;6.45;;;;;;;;;;4973826;28;20124;-61
2023/08/26 04:25:46;;;;;;;8.05;6.07;;;;;;;;;;4974151;28;20035;-61
2023/08/26 04:28:12;;;;;;;9.48;5.95;;;;;;;;;;4973915;28;20026;-62
2023/08/26 04:30:37;;;;;;;8.07;6.25;;;;;;;;;;4973962;28;20027;-62
2023/08/26 04:33:06;;;;;;;7.43;5.93;;;;;;;;;;4973827;28;20415;-62
2023/08/26 04:35:32;;;;;;;8.05;6.35;;;;;;;;;;4973771;28;20118;-62
2023/08/26 04:37:58;;;;;;;8.65;6.20;;;;;;;;;;4973648;28;20030;-63
2023/08/26 04:40:25;;;;;;;11.50;6.55;;;;;;;;;;4973952;28;20042;-62
2023/08/26 04:42:51;;;;;;;8.82;6.38;;;;;;;;;;4973646;28;20118;-61
2023/08/26 04:45:17;;;;;;;10.93;6.28;;;;;;;;;;4973679;28;20031;-62
2023/08/26 04:47:42;;;;;;;9.02;6.65;;;;;;;;;;4973267;28;20100;-62
2023/08/26 04:50:08;;;;;;;7.95;6.50;;;;;;;;;;4973652;28;20495;-62
2023/08/26 04:52:34;;;;;;;11.95;6.70;;;;;;;;;;4973105;28;20035;-62
2023/08/26 04:54:59;;;;;;;11.45;6.10;;;;;;;;;;4973695;28;20354;-62
2023/08/26 04:57:25;;;;;;;7.65;6.35;;;;;;;;;;4954494;28;20421;-62
2023/08/26 04:59:50;;;;;;;9.40;6.32;;;;;;;;;;4975182;28;20031;-61
2023/08/26 05:02:15;;;;;;;9.65;6.10;;;;;;;;;;4973350;28;20035;-62
2023/08/26 05:04:41;;;;;;;9.48;5.90;;;;;;;;;;4977238;28;20360;-62
2023/08/26 05:07:06;;;;;;;10.15;6.22;;;;;;;;;;4975917;28;20031;-62
2023/08/26 05:09:32;;;;;;;10.10;6.15;;;;;;;;;;4973286;28;20113;-62
2023/08/26 05:11:57;;;;;;;12.75;6.50;;;;;;;;;;4972999;28;20451;-63
2023/08/26 05:14:25;;;;;;;8.40;6.68;;;;;;;;;;4973647;28;20494;-61
2023/08/26 05:16:50;;;;;;;8.82;7.18;;;;;;;;;;4973143;28;20089;-62
2023/08/26 05:19:16;;;;;;;8.65;6.05;;;;;;;;;;4973203;28;20023;-62
2023/08/26 05:21:41;;;;;;;9.00;6.55;;;;;;;;;;4975311;28;20034;-61
2023/08/26 05:24:07;;;;;;;8.45;6.40;;;;;;;;;;4977360;28;20101;-64
2023/08/26 05:26:32;;;;;;;7.88;6.15;;;;;;;;;;4977555;28;20026;-62
2023/08/26 05:28:58;;;;;;;10.18;6.50;;;;;;;;;;4977150;28;20030;-61
2023/08/26 05:31:23;;;;;;;7.15;5.43;;;;;;;;;;4976957;28;20081;-62
2023/08/26 05:33:49;;;;;;;7.28;5.97;;;;;;;;;;4977240;28;20065;-62
2023/08/26 05:36:14;;;;;;;8.35;5.82;;;;;;;;;;4976961;28;20061;-62
2023/08/26 05:38:40;;;;;;;7.60;5.82;;;;;;;;;;4976972;28;20019;-63
2023/08/26 05:41:06;;;;;;;11.88;5.90;;;;;;;;;;4980365;28;20049;-62
2023/08/26 05:43:31;;;;;;;9.55;6.00;;;;;;;;;;4993586;28;20050;-63
2023/08/26 05:45:57;;;;;;;9.70;5.50;;;;;;;;;;4976976;28;20027;-62
2023/08/26 05:48:23;;;;;;;8.43;5.70;;;;;;;;;;4976877;28;20031;-62
2023/08/26 05:50:48;;;;;;;7.57;5.30;;;;;;;;;;4976301;28;20484;-61
2023/08/26 05:53:13;;;;;;;10.07;5.78;;;;;;;;;;4976377;28;20495;-61
2023/08/26 05:55:42;;;;;;;12.02;5.68;;;;;;;;;;4976662;28;20109;-61
2023/08/26 05:58:07;;;;;;;6.95;5.28;;;;;;;;;;4976557;28;20031;-62
2023/08/26 06:00:34;;;;;;;11.57;5.88;;;;;;;;;;4978572;28;20121;-63
2023/08/26 06:02:59;;;;;;;7.07;5.75;;;;;;;;;;4976545;28;20058;-62
2023/08/26 06:05:25;;;;;;;10.23;5.45;;;;;;;;;;4976103;28;20458;-62
2023/08/26 06:07:51;;;;;;;8.25;5.70;;;;;;;;;;4976376;28;20055;-63
2023/08/26 06:10:17;;;;;;;8.27;5.72;;;;;;;;;;4976412;28;20114;-63
2023/08/26 06:12:43;;;;;;;7.68;5.00;;;;;;;;;;4976266;28;20039;-62
2023/08/26 06:15:09;;;;;;;7.68;5.22;;;;;;;;;;4976328;28;20049;-64
2023/08/26 06:17:35;;;;;;;7.03;5.13;;;;;;;;;;4976291;28;20122;-64
2023/08/26 06:20:03;;;;;;;7.63;4.90;;;;;;;;;;4976024;28;20038;-61
2023/08/26 06:22:28;;;;;;;5.53;4.43;;;;;;;;;;4976015;28;20027;-60
2023/08/26 06:24:54;;;;;;;7.22;4.68;;;;;;;;;;4976076;28;20479;-61
2023/08/26 06:27:20;;;;;;;5.53;4.10;;;;;;;;;;4976111;28;20078;-61
2023/08/26 06:29:53;;;;;;;10.73;5.03;;;;;;;;;;4976179;28;20560;-61
2023/08/26 06:32:19;;;;;;;5.93;4.20;;;;;;;;;;4967746;28;20392;-61
2023/08/26 06:34:44;;;;;;;6.30;4.82;;;;;;;;;;4975628;28;20142;-61
2023/08/26 06:37:10;;;;;;;5.97;3.92;;;;;;;;;;4975703;28;20030;-63
2023/08/26 06:39:35;;;;;;;5.32;4.40;;;;;;;;;;4975958;28;20092;-63
2023/08/26 06:42:00;;;;;;;8.25;4.93;;;;;;;;;;4975872;28;20105;-62
2023/08/26 06:44:26;;;;;;;6.47;4.05;;;;;;;;;;4975909;28;20022;-63
2023/08/26 06:46:51;;;;;;;6.18;4.35;;;;;;;;;;4975514;28;20015;-62
2023/08/26 06:49:16;;;;;;;10.32;4.20;;;;;;;;;;4975415;28;20027;-60
2023/08/26 06:51:42;;;;;;;7.28;4.38;;;;;;;;;;4975378;28;20030;-61
2023/08/26 06:54:07;;;;;;;13.52;3.97;;;;;;;;;;4975555;28;20030;-63
2023/08/26 06:56:33;;;;;;;6.78;4.38;;;;;;;;;;4975575;28;20457;-61
2023/08/26 06:58:58;;;;;;;8.45;4.68;;;;;;;;;;4977621;28;20542;-62
2023/08/26 07:01:23;;;;;;;6.85;3.90;;;;;;;;;;4975536;28;20031;-62
2023/08/26 07:03:49;;;;;;;7.43;4.03;;;;;;;;;;4979068;28;20018;-62
2023/08/26 07:06:15;;;;;;;6.00;3.50;;;;;;;;;;4981315;28;20027;-62
2023/08/26 07:08:40;;;;;;;7.40;3.83;;;;;;;;;;4975496;28;20031;-61
2023/08/26 07:11:06;;;;;;;6.65;3.72;;;;;;;;;;4975579;28;20039;-62
2023/08/26 07:13:31;;;;;;;8.82;3.80;;;;;;;;;;4975158;28;20050;-61
2023/08/26 07:15:57;;;;;;;6.95;3.35;;;;;;;;;;4975266;28;20035;-61
2023/08/26 07:18:22;;;;;;;9.85;3.38;;;;;;;;;;4975226;28;20026;-61
2023/08/26 07:20:48;;;;;;;5.30;3.50;;;;;;;;;;4974774;28;20041;-61
2023/08/26 07:23:13;;;;;;;5.72;3.40;;;;;;;;;;4975265;28;20031;-61
2023/08/26 07:25:39;;;;;;;8.35;3.30;;;;;;;;;;4975197;28;20105;-61
2023/08/26 07:28:04;;;;;;;4.68;3.17;;;;;;;;;;4975266;28;20031;-61
2023/08/26 07:30:30;;;;;;;8.38;3.63;;;;;;;;;;4974750;28;20498;-61
2023/08/26 07:32:56;;;;;;;6.63;3.90;;;;;;;;;;4974963;28;20444;-61
2023/08/26 07:35:21;;;;;;;6.18;3.80;;;;;;;;;;4974998;28;20058;-61
2023/08/26 07:37:47;;;;;;;6.65;4.90;;;;;;;;;;4975077;28;20025;-61
2023/08/26 07:40:14;;;;;;;4.38;3.40;;;;;;;;;;4974866;28;20477;-61
2023/08/26 07:42:42;;;;;;;8.07;3.70;;;;;;;;;;4974597;28;20054;-60
2023/08/26 07:45:08;;;;;;;5.35;3.80;;;;;;;;;;4974102;28;20030;-61
2023/08/26 07:47:33;;;;;;;7.40;3.85;;;;;;;;;;4974521;28;20042;-62
2023/08/26 07:49:59;;;;;;;4.45;3.42;;;;;;;;;;4974623;28;20030;-61
2023/08/26 07:52:24;;;;;;;6.32;3.50;;;;;;;;;;4974671;28;20490;-61
2023/08/26 07:54:49;;;;;;;4.38;3.20;;;;;;;;;;4974335;28;20031;-61
2023/08/26 07:57:15;;;;;;;5.63;3.63;;;;;;;;;;4974411;28;20050;-61
2023/08/26 07:59:40;;;;;;;4.93;4.00;;;;;;;;;;4976438;28;20035;-61
2023/08/26 08:02:06;;;;;;;7.32;4.00;;;;;;;;;;4974163;28;20507;-61
2023/08/26 08:04:31;;;;;;;6.53;3.65;;;;;;;;;;4983428;28;20026;-61
2023/08/26 08:06:56;;;;;;;5.25;3.60;;;;;;;;;;4982577;28;20089;-61
2023/08/26 08:09:22;;;;;;;7.97;3.42;;;;;;;;;;4974336;28;20125;-61
2023/08/26 08:11:47;;;;;;;4.50;3.53;;;;;;;;;;4974066;28;20174;-62
2023/08/26 08:14:13;;;;;;;6.95;3.92;;;;;;;;;;4974165;28;20105;-61
2023/08/26 08:16:38;;;;;;;4.38;3.40;;;;;;;;;;4974334;28;20153;-61
2023/08/26 08:19:04;;;;;;;5.00;3.35;;;;;;;;;;4974188;28;20089;-61
2023/08/26 08:21:29;;;;;;;5.30;3.65;;;;;;;;;;4973981;28;20045;-61
2023/08/26 08:23:54;;;;;;;6.20;3.30;;;;;;;;;;4973975;28;20030;-62
2023/08/26 08:26:20;;;;;;;7.75;4.03;;;;;;;;;;4978242;28;20023;-62
2023/08/26 08:28:46;;;;;;;4.78;3.50;;;;;;;;;;4976931;28;20042;-62
2023/08/26 08:31:11;;;;;;;8.25;3.60;;;;;;;;;;4972169;28;20066;-62
2023/08/26 08:33:37;;;;;;;5.30;3.70;;;;;;;;;;4975227;28;20120;-61
2023/08/26 08:36:04;;;;;;;5.72;3.60;;;;;;;;;;4974136;28;20473;-61
2023/08/26 08:38:30;;;;;;;4.70;3.50;;;;;;;;;;4977237;28;20067;-61
2023/08/26 08:40:56;;;;;;;5.68;3.45;;;;;;;;;;4974258;28;20054;-61
2023/08/26 08:43:23;;;;;;;5.82;3.58;;;;;;;;;;4975541;28;20338;-61
2023/08/26 08:45:52;;;;;;;7.53;3.70;;;;;;;;;;4972567;28;20436;-61
2023/08/26 08:48:18;;;;;;;5.18;3.92;;;;;;;;;;4974123;28;20428;-61
2023/08/26 08:50:45;;;;;;;6.60;4.18;;;;;;;;;;4971441;28;20031;-61
2023/08/26 08:53:14;;;;;;;5.32;3.80;;;;;;;;;;4974389;28;20388;-61
2023/08/26 08:55:39;;;;;;;5.65;3.53;;;;;;;;;;4973364;28;20035;-60
2023/08/26 08:58:05;;;;;;;5.20;3.33;;;;;;;;;;4973676;28;20041;-61
2023/08/26 09:00:31;;;;;;;5.28;3.17;;;;;;;;;;4974126;28;20420;-60
2023/08/26 09:02:58;;;;;;;6.55;3.33;;;;;;;;;;4973906;28;20031;-61
2023/08/26 09:05:24;;;;;;;5.05;3.75;;;;;;;;;;4973813;28;20105;-61
2023/08/26 09:07:51;;;;;;;9.00;3.80;;;;;;;;;;4973784;28;20115;-62
2023/08/26 09:10:17;;;;;;;6.63;4.05;;;;;;;;;;4973865;28;20034;-61
2023/08/26 09:12:43;;;;;;;10.23;3.80;;;;;;;;;;4973330;28;20093;-60
2023/08/26 09:15:09;;;;;;;7.38;3.90;;;;;;;;;;4973740;28;20117;-61
2023/08/26 09:17:35;;;;;;;9.07;4.65;;;;;;;;;;4973664;28;20049;-62
2023/08/26 09:20:05;;;;;;;5.53;3.70;;;;;;;;;;4971872;28;20041;-61
2023/08/26 09:22:32;;;;;;;7.45;4.18;;;;;;;;;;4967205;28;20484;-61
2023/08/26 09:24:59;;;;;;;6.00;3.47;;;;;;;;;;4961062;28;20089;-63
2023/08/26 09:27:25;;;;;;;7.97;4.10;;;;;;;;;;4968348;28;20030;-65
2023/08/26 09:29:51;;;;;;;8.38;3.97;;;;;;;;;;4982079;28;20109;-65
2023/08/26 09:32:37;;;;;;;4.85;3.30;;;;;;;;;;4969492;28;20530;-66
2023/08/26 09:35:09;;;;;;;5.53;3.20;;;;;;;;;;4952229;28;20378;-65
2023/08/26 09:37:34;;;;;;;6.10;3.10;;;;;;;;;;4970214;28;20034;-66
2023/08/26 09:40:00;;;;;;;4.38;2.30;;;;;;;;;;4968408;28;20385;-66
2023/08/26 09:42:26;;;;;;;7.35;3.10;;;;;;;;;;4969419;28;20053;-66
2023/08/26 09:44:56;;;;;;;4.90;3.05;;;;;;;;;;4970222;28;20077;-66
2023/08/26 09:47:22;;;;;;;6.40;2.88;;;;;;;;;;4969470;28;20353;-66
2023/08/26 09:49:50;;;;;;;3.47;2.55;;;;;;;;;;4971222;28;20035;-65
2023/08/26 09:52:16;;;;;;;4.65;2.72;;;;;;;;;;4973297;28;20065;-66
2023/08/26 09:54:44;;;;;;;3.65;2.30;;;;;;;;;;4973490;28;20062;-66
2023/08/26 09:57:09;;;;;;;3.13;1.85;;;;;;;;;;4972158;28;20078;-65
2023/08/26 09:59:35;;;;;;;3.83;2.10;;;;;;;;;;4969317;28;20027;-66
2023/08/26 10:02:06;;;;;;;4.60;2.40;;;;;;;;;;4965795;28;20480;-66
2023/08/26 10:04:36;;;;;;;5.45;2.40;;;;;;;;;;4972527;28;20050;-66
2023/08/26 10:07:02;;;;;;;4.47;2.47;;;;;;;;;;4971727;28;20078;-67
2023/08/26 10:09:50;;;;;;;5.28;2.38;;;;;;;;;;4976233;28;20023;-66
2023/08/26 10:12:21;;;;;;;3.88;2.15;;;;;;;;;;4973642;28;20098;-69
2023/08/26 10:14:50;;;;;;;6.38;3.65;;;;;;;;;;4976074;28;20460;-65
2023/08/26 10:17:19;;;;;;;5.22;3.05;;;;;;;;;;4974492;28;20030;-64
2023/08/26 10:19:46;;;;;;;3.53;2.80;;;;;;;;;;4975848;28;20502;-69
2023/08/26 10:22:12;;;;;;;4.57;3.20;;;;;;;;;;4967767;28;20523;-68
2023/08/26 10:24:38;;;;;;;5.93;3.80;;;;;;;;;;4971649;28;20043;-60
2023/08/26 10:27:07;;;;;;;3.78;2.85;;;;;;;;;;4964848;28;20453;-61
2023/08/26 10:29:35;;;;;;;6.35;3.00;;;;;;;;;;4970753;28;20558;-61
2023/08/26 10:32:17;;;;;;;5.35;2.80;;;;;;;;;;4985796;28;20026;-66
2023/08/26 10:34:59;;;;;;;5.43;2.97;;;;;;;;;;4979168;28;20492;-65
2023/08/26 10:37:26;;;;;;;4.93;3.30;;;;;;;;;;4961920;28;20051;-67
2023/08/26 10:39:52;;;;;;;6.45;4.13;;;;;;;;;;4972524;28;20090;-67
2023/08/26 10:42:18;;;;;;;6.30;4.40;;;;;;;;;;4962872;28;20043;-65
2023/08/26 10:44:56;;;;;;;5.20;3.55;;;;;;;;;;4970841;28;20034;-67
2023/08/26 10:47:44;;;;;;;8.38;4.30;;;;;;;;;;4961964;28;20027;-67
2023/08/26 10:50:21;;;;;;;6.90;4.43;;;;;;;;;;4974312;28;20069;-67
2023/08/26 10:53:19;;;;;;;7.65;4.88;;;;;;;;;;4958779;28;20027;-68
2023/08/26 10:55:50;;;;;;;7.53;4.38;;;;;;;;;;4952753;28;20047;-68
2023/08/26 10:58:21;;;;;;;5.97;4.47;;;;;;;;;;4958779;28;20035;-67
2023/08/26 11:00:52;;;;;;;7.60;4.18;;;;;;;;;;4955710;28;20039;-67
2023/08/26 11:03:19;;;;;;;9.77;4.22;;;;;;;;;;4958512;28;20034;-68
2023/08/26 11:05:46;;;;;;;6.65;4.55;;;;;;;;;;4955782;28;20115;-66
2023/08/26 11:08:13;;;;;;;6.07;4.05;;;;;;;;;;4974322;28;20063;-68
2023/08/26 11:10:40;;;;;;;5.60;3.53;;;;;;;;;;4993404;28;20049;-65
2023/08/26 11:13:11;;;;;;;7.75;3.90;;;;;;;;;;4974462;28;20070;-63
2023/08/26 11:15:39;;;;;;;5.82;3.50;;;;;;;;;;4974912;28;20373;-67
2023/08/26 11:18:06;;;;;;;6.10;3.38;;;;;;;;;;4956623;28;20027;-67
2023/08/26 11:20:31;;;;;;;6.03;3.90;;;;;;;;;;4972836;28;20027;-67
2023/08/26 11:23:04;;;;;;;5.57;3.20;;;;;;;;;;4956213;28;20067;-64
2023/08/26 11:25:30;;;;;;;5.70;3.20;;;;;;;;;;4974587;28;20058;-66
2023/08/26 11:28:07;;;;;;;6.30;3.63;;;;;;;;;;4973873;28;20026;-68
2023/08/26 11:30:40;;;;;;;8.98;4.45;;;;;;;;;;4992345;28;20038;-63
2023/08/26 11:33:12;;;;;;;6.63;4.32;;;;;;;;;;4972623;28;20038;-63
2023/08/26 11:35:45;;;;;;;7.80;4.00;;;;;;;;;;4956851;28;20042;-65
2023/08/26 11:38:11;;;;;;;6.63;4.20;;;;;;;;;;4970226;28;20389;-68
2023/08/26 11:40:37;;;;;;;6.88;4.53;;;;;;;;;;4956921;28;20470;-67
2023/08/26 11:43:13;;;;;;;6.15;4.55;;;;;;;;;;4973164;28;20089;-64
2023/08/26 11:45:42;;;;;;;6.80;4.38;;;;;;;;;;4974417;28;20113;-69
2023/08/26 11:48:11;;;;;;;9.13;4.47;;;;;;;;;;4976164;28;20053;-67
2023/08/26 11:50:37;;;;;;;5.28;4.07;;;;;;;;;;4974461;28;20045;-66
2023/08/26 11:53:03;;;;;;;7.65;4.53;;;;;;;;;;4972864;28;20027;-63
2023/08/26 11:55:30;;;;;;;6.35;4.25;;;;;;;;;;4972210;28;20042;-71
2023/08/26 11:57:57;;;;;;;6.25;4.20;;;;;;;;;;4973870;28;20045;-66
2023/08/26 12:00:23;;;;;;;6.38;4.57;;;;;;;;;;4971129;28;20035;-72
2023/08/26 12:02:59;;;;;;;7.13;4.30;;;;;;;;;;4973896;28;20027;-71
2023/08/26 12:05:24;;;;;;;9.65;4.75;;;;;;;;;;4970965;28;20031;-61
2023/08/26 12:07:54;;;;;;;6.95;4.53;;;;;;;;;;4969271;28;20039;-67
2023/08/26 12:10:20;;;;;;;7.70;4.55;;;;;;;;;;4969921;28;20035;-66
2023/08/26 12:12:47;;;;;;;5.88;4.13;;;;;;;;;;4971035;28;20057;-64
2023/08/26 12:15:17;;;;;;;6.68;4.70;;;;;;;;;;4972112;28;20395;-62
2023/08/26 12:17:55;;;;;;;11.23;4.88;;;;;;;;;;4971774;28;20132;-63
2023/08/26 12:20:25;;;;;;;6.85;4.28;;;;;;;;;;4969592;28;20117;-64
2023/08/26 12:22:58;;;;;;;12.38;5.45;;;;;;;;;;4970733;28;20042;-65
2023/08/26 12:25:33;;;;;;;11.65;5.38;;;;;;;;;;4969486;28;20038;-71
2023/08/26 12:28:17;;;;;;;11.38;5.75;;;;;;;;;;4977188;28;20026;-70
2023/08/26 12:30:45;;;;;;;15.93;6.07;;;;;;;;;;4974415;28;20094;-74
2023/08/26 12:33:12;;;;;;;10.63;5.80;;;;;;;;;;4967962;28;20034;-69
2023/08/26 12:35:38;;;;;;;10.98;5.15;;;;;;;;;;4970501;28;20395;-68
2023/08/26 12:38:06;;;;;;;11.55;5.80;;;;;;;;;;4951606;29;20098;-69
2023/08/26 12:40:33;;;;;;;9.40;4.85;;;;;;;;;;4969289;28;20093;-70
2023/08/26 12:43:04;;;;;;;8.13;4.28;;;;;;;;;;4969141;28;20042;-70
2023/08/26 12:45:31;;;;;;;7.95;4.53;;;;;;;;;;4968209;28;20030;-67
2023/08/26 12:47:57;;;;;;;11.07;5.30;;;;;;;;;;4969143;28;20035;-69
2023/08/26 12:50:22;;;;;;;7.75;4.28;;;;;;;;;;4966819;28;20342;-68
2023/08/26 12:52:48;;;;;;;7.65;4.25;;;;;;;;;;4970460;28;20504;-71
2023/08/26 12:55:14;;;;;;;7.80;4.32;;;;;;;;;;4965403;28;20089;-68
2023/08/26 12:57:40;;;;;;;7.57;3.70;;;;;;;;;;4971535;28;20484;-67
2023/08/26 13:00:06;;;;;;;8.48;4.28;;;;;;;;;;4962039;28;20030;-74
2023/08/26 13:02:33;;;;;;;8.85;3.67;;;;;;;;;;4971982;28;20049;-72
2023/08/26 13:04:59;;;;;;;7.45;4.00;;;;;;;;;;4962509;28;20137;-68
2023/08/26 13:07:24;;;;;;;7.55;4.18;;;;;;;;;;4974945;28;20117;-71
2023/08/26 13:09:49;;;;;;;7.30;3.80;;;;;;;;;;4983699;28;20046;-68
2023/08/26 13:12:16;;;;;;;7.43;3.88;;;;;;;;;;4971135;28;20042;-66
2023/08/26 13:14:41;;;;;;;7.20;3.67;;;;;;;;;;4959369;28;20568;-68
2023/08/26 13:17:06;;;;;;;5.15;3.50;;;;;;;;;;4972136;28;20110;-66
2023/08/26 13:19:32;;;;;;;19.42;14.13;;;;;;;;;;4958277;28;20061;-74
2023/08/26 13:21:57;;;;;;;7.60;4.07;;;;;;;;;;4972091;28;20034;-72
2023/08/26 13:24:23;;;;;;;8.68;5.00;;;;;;;;;;4958070;28;20033;-64
2023/08/26 13:26:48;;;;;;;33.63;19.52;;;;;;;;;;4971653;28;20412;-68
2023/08/26 13:29:13;;;;;;;7.78;3.85;;;;;;;;;;4957269;28;20035;-66
2023/08/26 13:31:39;;;;;;;9.73;4.50;;;;;;;;;;4971990;28;20043;-68
2023/08/26 13:34:04;;;;;;;11.55;5.28;;;;;;;;;;4957316;28;20082;-65
2023/08/26 13:36:30;;;;;;;8.68;4.30;;;;;;;;;;4971999;28;20054;-67
2023/08/26 13:38:55;;;;;;;7.00;4.00;;;;;;;;;;4958238;28;20118;-68
2023/08/26 13:41:20;;;;;;;8.13;3.80;;;;;;;;;;4983368;28;20451;-65
2023/08/26 13:43:46;;;;;;;10.50;4.28;;;;;;;;;;4956021;29;20035;-65
2023/08/26 13:46:13;;;;;;;6.78;4.00;;;;;;;;;;4973966;28;20034;-70
2023/08/26 13:48:38;;;;;;;7.90;3.80;;;;;;;;;;4991573;28;20030;-64
2023/08/26 13:51:04;;;;;;;9.40;3.63;;;;;;;;;;4979052;28;20338;-66
2023/08/26 13:53:29;;;;;;;8.48;5.72;;;;;;;;;;4961332;28;20067;-67
2023/08/26 13:55:57;;;;;;;11.82;3.75;;;;;;;;;;4971095;28;20484;-67
2023/08/26 13:58:23;;;;;;;7.55;3.78;;;;;;;;;;4961807;28;20110;-65
2023/08/26 14:00:49;;;;;;;7.82;3.78;;;;;;;;;;4969820;28;20043;-68
2023/08/26 14:03:14;;;;;;;8.50;3.45;;;;;;;;;;4962925;28;20122;-69
2023/08/26 14:05:44;;;;;;;5.28;3.25;;;;;;;;;;4968357;28;20026;-68
2023/08/26 14:08:10;;;;;;;5.97;3.55;;;;;;;;;;4963853;28;20027;-68
2023/08/26 14:10:35;;;;;;;5.10;3.17;;;;;;;;;;4967379;28;20041;-67
2023/08/26 14:13:01;;;;;;;9.63;3.35;;;;;;;;;;4964583;28;20376;-66
2023/08/26 14:15:26;;;;;;;7.88;3.25;;;;;;;;;;4966061;28;20034;-67
2023/08/26 14:17:52;;;;;;;7.10;3.80;;;;;;;;;;4975039;28;20033;-66
2023/08/26 14:20:17;;;;;;;7.82;3.58;;;;;;;;;;4975024;28;20027;-64
2023/08/26 14:22:42;;;;;;;7.10;3.25;;;;;;;;;;4975110;28;20033;-64
2023/08/26 14:25:09;;;;;;;8.65;3.28;;;;;;;;;;4975687;28;20118;-65
2023/08/26 14:27:35;;;;;;;7.43;3.40;;;;;;;;;;4973309;28;20066;-65
2023/08/26 14:30:00;;;;;;;7.35;3.63;;;;;;;;;;4974459;28;20035;-67
2023/08/26 14:32:26;;;;;;;9.40;3.63;;;;;;;;;;4974941;28;20097;-67
2023/08/26 14:34:51;;;;;;;9.32;3.38;;;;;;;;;;4974130;28;20158;-68
2023/08/26 14:37:17;;;;;;;6.60;3.05;;;;;;;;;;4973631;28;20039;-66
2023/08/26 14:39:42;;;;;;;7.07;3.10;;;;;;;;;;4973383;28;20058;-67